sensor_id;sensor_type;location;lat;lon;timestamp;P1;durP1;ratioP1;P2;durP2;ratioP2
20065;SDS011;10193;48.884;9.182;2023-03-15T00:01:36;3.53;;;2.60;;
20065;SDS011;10193;48.884;9.182;2023-03-15T00:04:03;3.40;;;2.60;;
20065;SDS011;10193;48.884;9.182;2023-03-15T00:06:30;3.50;;;3.00;;
20065;SDS011;10193;48.884;9.182;2023-03-15T00:08:57;3.50;;;3.20;;
20065;SDS011;10193;48.884;9.182;2023-03-15T00:11:26;3.63;;;3.33;;
20065;SDS011;10193;48.884;9.182;2023-03-15T00:13:54;3.60;;;3.30;;
20065;SDS011;10193;48.884;9.182;2023-03-15T00:16:21;4.00;;;3.70;;
20065;SDS011;10193;48.884;9.182;2023-03-15T00:18:52;3.40;;;3.20;;
20065;SDS011;10193;48.884;9.182;2023-03-15T00:21:20;3.80;;;3.50;;
20065;SDS011;10193;48.884;9.182;2023-03-15T00:23:46;3.90;;;3.60;;
20065;SDS011;10193;48.884;9.182;2023-03-15T00:26:14;4.33;;;3.73;;
20065;SDS011;10193;48.884;9.182;2023-03-15T00:28:41;3.90;;;3.60;;
20065;SDS011;10193;48.884;9.182;2023-03-15T00:31:14;3.83;;;3.53;;
20065;SDS011;10193;48.884;9.182;2023-03-15T00:33:42;4.17;;;3.80;;
20065;SDS011;10193;48.884;9.182;2023-03-15T00:36:10;4.03;;;3.40;;
20065;SDS011;10193;48.884;9.182;2023-03-15T00:38:39;4.40;;;3.70;;
20065;SDS011;10193;48.884;9.182;2023-03-15T00:41:08;3.80;;;3.50;;
20065;SDS011;10193;48.884;9.182;2023-03-15T00:43:36;4.27;;;3.40;;
20065;SDS011;10193;48.884;9.182;2023-03-15T00:46:03;3.40;;;3.13;;
20065;SDS011;10193;48.884;9.182;2023-03-15T00:48:31;4.27;;;3.40;;
20065;SDS011;10193;48.884;9.182;2023-03-15T00:51:03;4.60;;;4.07;;
20065;SDS011;10193;48.884;9.182;2023-03-15T00:53:32;4.13;;;3.70;;
20065;SDS011;10193;48.884;9.182;2023-03-15T00:56:02;5.20;;;4.07;;
20065;SDS011;10193;48.884;9.182;2023-03-15T00:58:30;4.37;;;3.70;;
20065;SDS011;10193;48.884;9.182;2023-03-15T01:00:56;3.90;;;3.50;;
20065;SDS011;10193;48.884;9.182;2023-03-15T01:03:25;4.27;;;3.73;;
20065;SDS011;10193;48.884;9.182;2023-03-15T01:05:52;5.53;;;3.47;;
20065;SDS011;10193;48.884;9.182;2023-03-15T01:08:18;3.63;;;3.33;;
20065;SDS011;10193;48.884;9.182;2023-03-15T01:10:46;4.23;;;3.37;;
20065;SDS011;10193;48.884;9.182;2023-03-15T01:13:13;3.93;;;3.10;;
20065;SDS011;10193;48.884;9.182;2023-03-15T01:15:41;3.00;;;2.80;;
20065;SDS011;10193;48.884;9.182;2023-03-15T01:18:11;4.47;;;3.43;;
20065;SDS011;10193;48.884;9.182;2023-03-15T01:20:40;3.13;;;2.90;;
20065;SDS011;10193;48.884;9.182;2023-03-15T01:23:07;3.20;;;3.00;;
20065;SDS011;10193;48.884;9.182;2023-03-15T01:25:34;3.67;;;2.77;;
20065;SDS011;10193;48.884;9.182;2023-03-15T01:28:02;3.40;;;3.10;;
20065;SDS011;10193;48.884;9.182;2023-03-15T01:30:29;3.57;;;2.87;;
20065;SDS011;10193;48.884;9.182;2023-03-15T01:32:56;4.20;;;2.63;;
20065;SDS011;10193;48.884;9.182;2023-03-15T01:35:22;3.23;;;2.77;;
20065;SDS011;10193;48.884;9.182;2023-03-15T01:37:49;2.47;;;2.27;;
20065;SDS011;10193;48.884;9.182;2023-03-15T01:40:16;2.70;;;2.40;;
20065;SDS011;10193;48.884;9.182;2023-03-15T01:42:50;2.50;;;2.30;;
20065;SDS011;10193;48.884;9.182;2023-03-15T01:48:32;2.30;;;2.10;;
20065;SDS011;10193;48.884;9.182;2023-03-15T01:51:03;2.50;;;2.20;;
20065;SDS011;10193;48.884;9.182;2023-03-15T01:53:34;2.73;;;2.10;;
20065;SDS011;10193;48.884;9.182;2023-03-15T01:56:01;2.53;;;2.27;;
20065;SDS011;10193;48.884;9.182;2023-03-15T01:58:29;2.33;;;2.13;;
20065;SDS011;10193;48.884;9.182;2023-03-15T02:00:56;2.77;;;2.13;;
20065;SDS011;10193;48.884;9.182;2023-03-15T02:03:24;2.20;;;2.00;;
20065;SDS011;10193;48.884;9.182;2023-03-15T02:05:58;3.70;;;2.07;;
20065;SDS011;10193;48.884;9.182;2023-03-15T02:08:29;1.90;;;1.80;;
20065;SDS011;10193;48.884;9.182;2023-03-15T02:11:02;4.50;;;1.87;;
20065;SDS011;10193;48.884;9.182;2023-03-15T02:13:30;2.10;;;1.67;;
20065;SDS011;10193;48.884;9.182;2023-03-15T02:16:00;2.47;;;1.93;;
20065;SDS011;10193;48.884;9.182;2023-03-15T02:18:31;2.13;;;1.73;;
20065;SDS011;10193;48.884;9.182;2023-03-15T02:21:03;2.37;;;2.17;;
20065;SDS011;10193;48.884;9.182;2023-03-15T02:23:35;1.90;;;1.80;;
20065;SDS011;10193;48.884;9.182;2023-03-15T02:26:05;1.60;;;1.50;;
20065;SDS011;10193;48.884;9.182;2023-03-15T02:28:43;2.03;;;1.80;;
20065;SDS011;10193;48.884;9.182;2023-03-15T02:31:10;2.80;;;1.70;;
20065;SDS011;10193;48.884;9.182;2023-03-15T02:33:38;1.87;;;1.77;;
20065;SDS011;10193;48.884;9.182;2023-03-15T02:36:09;1.57;;;1.40;;
20065;SDS011;10193;48.884;9.182;2023-03-15T02:38:39;2.07;;;1.63;;
20065;SDS011;10193;48.884;9.182;2023-03-15T02:41:06;1.83;;;1.70;;
20065;SDS011;10193;48.884;9.182;2023-03-15T02:43:33;1.80;;;1.70;;
20065;SDS011;10193;48.884;9.182;2023-03-15T02:46:02;2.90;;;1.50;;
20065;SDS011;10193;48.884;9.182;2023-03-15T02:48:30;1.80;;;1.50;;
20065;SDS011;10193;48.884;9.182;2023-03-15T02:50:59;2.13;;;1.43;;
20065;SDS011;10193;48.884;9.182;2023-03-15T02:53:27;1.60;;;1.20;;
20065;SDS011;10193;48.884;9.182;2023-03-15T02:55:54;3.70;;;1.50;;
20065;SDS011;10193;48.884;9.182;2023-03-15T02:58:21;1.40;;;1.30;;
20065;SDS011;10193;48.884;9.182;2023-03-15T03:00:48;1.93;;;1.37;;
20065;SDS011;10193;48.884;9.182;2023-03-15T03:03:17;1.40;;;1.30;;
20065;SDS011;10193;48.884;9.182;2023-03-15T03:05:44;1.70;;;1.60;;
20065;SDS011;10193;48.884;9.182;2023-03-15T03:08:11;2.00;;;1.33;;
20065;SDS011;10193;48.884;9.182;2023-03-15T03:10:40;1.97;;;1.30;;
20065;SDS011;10193;48.884;9.182;2023-03-15T03:13:07;1.27;;;1.17;;
20065;SDS011;10193;48.884;9.182;2023-03-15T03:15:34;4.47;;;1.63;;
20065;SDS011;10193;48.884;9.182;2023-03-15T03:18:00;3.53;;;1.40;;
20065;SDS011;10193;48.884;9.182;2023-03-15T03:20:28;2.83;;;1.43;;
20065;SDS011;10193;48.884;9.182;2023-03-15T03:22:55;3.10;;;1.40;;
20065;SDS011;10193;48.884;9.182;2023-03-15T03:25:22;1.50;;;1.40;;
20065;SDS011;10193;48.884;9.182;2023-03-15T03:27:51;2.63;;;1.37;;
20065;SDS011;10193;48.884;9.182;2023-03-15T03:30:21;2.23;;;1.50;;
20065;SDS011;10193;48.884;9.182;2023-03-15T03:32:49;1.77;;;1.40;;
20065;SDS011;10193;48.884;9.182;2023-03-15T03:35:15;1.40;;;1.10;;
20065;SDS011;10193;48.884;9.182;2023-03-15T03:37:43;1.40;;;1.30;;
20065;SDS011;10193;48.884;9.182;2023-03-15T03:40:11;2.77;;;1.30;;
20065;SDS011;10193;48.884;9.182;2023-03-15T03:42:38;4.20;;;1.53;;
20065;SDS011;10193;48.884;9.182;2023-03-15T03:45:05;2.20;;;1.53;;
20065;SDS011;10193;48.884;9.182;2023-03-15T03:47:33;2.97;;;1.60;;
20065;SDS011;10193;48.884;9.182;2023-03-15T03:49:59;2.17;;;1.40;;
20065;SDS011;10193;48.884;9.182;2023-03-15T03:52:26;1.60;;;1.50;;
20065;SDS011;10193;48.884;9.182;2023-03-15T03:54:54;1.77;;;1.43;;
20065;SDS011;10193;48.884;9.182;2023-03-15T03:57:21;5.37;;;1.30;;
20065;SDS011;10193;48.884;9.182;2023-03-15T03:59:48;1.90;;;1.30;;
20065;SDS011;10193;48.884;9.182;2023-03-15T04:02:14;1.00;;;0.90;;
20065;SDS011;10193;48.884;9.182;2023-03-15T04:04:41;2.17;;;1.20;;
20065;SDS011;10193;48.884;9.182;2023-03-15T04:07:07;2.20;;;1.10;;
20065;SDS011;10193;48.884;9.182;2023-03-15T04:09:34;0.90;;;0.90;;
20065;SDS011;10193;48.884;9.182;2023-03-15T04:12:03;1.93;;;1.17;;
20065;SDS011;10193;48.884;9.182;2023-03-15T04:14:30;1.53;;;1.37;;
20065;SDS011;10193;48.884;9.182;2023-03-15T04:16:57;1.40;;;1.03;;
20065;SDS011;10193;48.884;9.182;2023-03-15T04:19:23;2.43;;;1.40;;
20065;SDS011;10193;48.884;9.182;2023-03-15T04:21:51;1.50;;;1.00;;
20065;SDS011;10193;48.884;9.182;2023-03-15T04:24:17;1.30;;;1.20;;
20065;SDS011;10193;48.884;9.182;2023-03-15T04:26:44;1.40;;;1.30;;
20065;SDS011;10193;48.884;9.182;2023-03-15T04:29:12;1.40;;;1.30;;
20065;SDS011;10193;48.884;9.182;2023-03-15T04:31:39;2.40;;;1.30;;
20065;SDS011;10193;48.884;9.182;2023-03-15T04:34:07;3.83;;;1.30;;
20065;SDS011;10193;48.884;9.182;2023-03-15T04:36:34;1.40;;;1.30;;
20065;SDS011;10193;48.884;9.182;2023-03-15T04:39:01;2.57;;;1.33;;
20065;SDS011;10193;48.884;9.182;2023-03-15T04:41:30;2.00;;;1.60;;
20065;SDS011;10193;48.884;9.182;2023-03-15T04:43:58;4.80;;;1.80;;
20065;SDS011;10193;48.884;9.182;2023-03-15T04:46:26;2.20;;;2.00;;
20065;SDS011;10193;48.884;9.182;2023-03-15T04:48:53;3.27;;;1.93;;
20065;SDS011;10193;48.884;9.182;2023-03-15T04:51:20;2.83;;;1.77;;
20065;SDS011;10193;48.884;9.182;2023-03-15T04:53:46;2.27;;;2.07;;
20065;SDS011;10193;48.884;9.182;2023-03-15T04:56:13;2.53;;;2.00;;
20065;SDS011;10193;48.884;9.182;2023-03-15T04:58:40;2.27;;;1.97;;
20065;SDS011;10193;48.884;9.182;2023-03-15T05:01:06;2.83;;;2.20;;
20065;SDS011;10193;48.884;9.182;2023-03-15T05:03:34;2.50;;;2.23;;
20065;SDS011;10193;48.884;9.182;2023-03-15T05:06:01;3.20;;;2.10;;
20065;SDS011;10193;48.884;9.182;2023-03-15T05:08:32;3.40;;;2.40;;
20065;SDS011;10193;48.884;9.182;2023-03-15T05:10:58;2.53;;;2.03;;
20065;SDS011;10193;48.884;9.182;2023-03-15T05:13:25;2.33;;;2.13;;
20065;SDS011;10193;48.884;9.182;2023-03-15T05:15:52;4.57;;;2.33;;
20065;SDS011;10193;48.884;9.182;2023-03-15T05:18:18;3.93;;;2.13;;
20065;SDS011;10193;48.884;9.182;2023-03-15T05:20:47;3.53;;;2.27;;
20065;SDS011;10193;48.884;9.182;2023-03-15T05:23:14;3.37;;;2.30;;
20065;SDS011;10193;48.884;9.182;2023-03-15T05:25:41;3.90;;;2.20;;
20065;SDS011;10193;48.884;9.182;2023-03-15T05:28:07;2.43;;;2.20;;
20065;SDS011;10193;48.884;9.182;2023-03-15T05:30:34;3.57;;;2.20;;
20065;SDS011;10193;48.884;9.182;2023-03-15T05:33:01;2.53;;;2.33;;
20065;SDS011;10193;48.884;9.182;2023-03-15T05:35:28;2.87;;;2.10;;
20065;SDS011;10193;48.884;9.182;2023-03-15T05:37:56;2.33;;;2.13;;
20065;SDS011;10193;48.884;9.182;2023-03-15T05:40:23;3.67;;;2.40;;
20065;SDS011;10193;48.884;9.182;2023-03-15T05:42:53;2.43;;;2.20;;
20065;SDS011;10193;48.884;9.182;2023-03-15T05:45:20;3.63;;;2.03;;
20065;SDS011;10193;48.884;9.182;2023-03-15T05:47:47;2.63;;;2.03;;
20065;SDS011;10193;48.884;9.182;2023-03-15T05:50:13;2.77;;;2.33;;
20065;SDS011;10193;48.884;9.182;2023-03-15T05:52:40;2.90;;;2.10;;
20065;SDS011;10193;48.884;9.182;2023-03-15T05:55:08;2.23;;;2.00;;
20065;SDS011;10193;48.884;9.182;2023-03-15T05:57:35;3.23;;;2.10;;
20065;SDS011;10193;48.884;9.182;2023-03-15T06:00:02;2.83;;;2.03;;
20065;SDS011;10193;48.884;9.182;2023-03-15T06:02:30;2.50;;;1.97;;
20065;SDS011;10193;48.884;9.182;2023-03-15T06:04:57;3.23;;;2.30;;
20065;SDS011;10193;48.884;9.182;2023-03-15T06:07:24;2.90;;;2.07;;
20065;SDS011;10193;48.884;9.182;2023-03-15T06:09:50;3.73;;;2.00;;
20065;SDS011;10193;48.884;9.182;2023-03-15T06:12:19;3.33;;;2.13;;
20065;SDS011;10193;48.884;9.182;2023-03-15T06:14:45;7.13;;;2.47;;
20065;SDS011;10193;48.884;9.182;2023-03-15T06:17:12;2.33;;;1.93;;
20065;SDS011;10193;48.884;9.182;2023-03-15T06:19:39;3.23;;;2.43;;
20065;SDS011;10193;48.884;9.182;2023-03-15T06:22:05;4.07;;;2.23;;
20065;SDS011;10193;48.884;9.182;2023-03-15T06:24:32;3.23;;;2.37;;
20065;SDS011;10193;48.884;9.182;2023-03-15T06:26:59;3.53;;;2.30;;
20065;SDS011;10193;48.884;9.182;2023-03-15T06:29:27;3.60;;;2.20;;
20065;SDS011;10193;48.884;9.182;2023-03-15T06:31:54;3.33;;;2.40;;
20065;SDS011;10193;48.884;9.182;2023-03-15T06:34:21;3.00;;;2.40;;
20065;SDS011;10193;48.884;9.182;2023-03-15T06:36:48;2.90;;;2.37;;
20065;SDS011;10193;48.884;9.182;2023-03-15T06:39:16;2.57;;;2.10;;
20065;SDS011;10193;48.884;9.182;2023-03-15T06:41:43;2.93;;;2.20;;
20065;SDS011;10193;48.884;9.182;2023-03-15T06:44:10;2.97;;;2.13;;
20065;SDS011;10193;48.884;9.182;2023-03-15T06:46:38;5.77;;;2.30;;
20065;SDS011;10193;48.884;9.182;2023-03-15T06:49:04;3.77;;;2.10;;
20065;SDS011;10193;48.884;9.182;2023-03-15T06:51:31;2.97;;;2.17;;
20065;SDS011;10193;48.884;9.182;2023-03-15T06:53:58;3.83;;;2.27;;
20065;SDS011;10193;48.884;9.182;2023-03-15T06:56:24;4.73;;;2.37;;
20065;SDS011;10193;48.884;9.182;2023-03-15T06:58:51;3.07;;;2.00;;
20065;SDS011;10193;48.884;9.182;2023-03-15T07:01:18;2.63;;;2.07;;
20065;SDS011;10193;48.884;9.182;2023-03-15T07:03:46;5.03;;;2.20;;
20065;SDS011;10193;48.884;9.182;2023-03-15T07:06:12;3.47;;;2.30;;
20065;SDS011;10193;48.884;9.182;2023-03-15T07:08:39;3.43;;;2.20;;
20065;SDS011;10193;48.884;9.182;2023-03-15T07:11:05;3.83;;;2.10;;
20065;SDS011;10193;48.884;9.182;2023-03-15T07:13:32;3.93;;;1.97;;
20065;SDS011;10193;48.884;9.182;2023-03-15T07:15:59;3.63;;;2.10;;
20065;SDS011;10193;48.884;9.182;2023-03-15T07:18:25;3.67;;;2.00;;
20065;SDS011;10193;48.884;9.182;2023-03-15T07:20:57;2.80;;;1.90;;
20065;SDS011;10193;48.884;9.182;2023-03-15T07:23:24;3.40;;;1.73;;
20065;SDS011;10193;48.884;9.182;2023-03-15T07:25:51;4.20;;;1.70;;
20065;SDS011;10193;48.884;9.182;2023-03-15T07:28:18;2.40;;;1.73;;
20065;SDS011;10193;48.884;9.182;2023-03-15T07:30:51;3.53;;;1.70;;
20065;SDS011;10193;48.884;9.182;2023-03-15T07:33:18;1.77;;;1.67;;
20065;SDS011;10193;48.884;9.182;2023-03-15T07:35:46;4.60;;;1.77;;
20065;SDS011;10193;48.884;9.182;2023-03-15T07:38:14;4.43;;;1.80;;
20065;SDS011;10193;48.884;9.182;2023-03-15T07:40:41;2.90;;;1.70;;
20065;SDS011;10193;48.884;9.182;2023-03-15T07:43:07;4.17;;;1.97;;
20065;SDS011;10193;48.884;9.182;2023-03-15T07:45:34;6.37;;;2.17;;
20065;SDS011;10193;48.884;9.182;2023-03-15T07:48:01;3.23;;;2.30;;
20065;SDS011;10193;48.884;9.182;2023-03-15T07:50:28;4.37;;;2.20;;
20065;SDS011;10193;48.884;9.182;2023-03-15T07:52:54;3.53;;;2.07;;
20065;SDS011;10193;48.884;9.182;2023-03-15T07:55:22;3.70;;;1.87;;
20065;SDS011;10193;48.884;9.182;2023-03-15T07:57:49;4.83;;;2.40;;
20065;SDS011;10193;48.884;9.182;2023-03-15T08:00:16;2.37;;;1.90;;
20065;SDS011;10193;48.884;9.182;2023-03-15T08:02:44;4.57;;;2.00;;
20065;SDS011;10193;48.884;9.182;2023-03-15T08:05:10;4.53;;;2.30;;
20065;SDS011;10193;48.884;9.182;2023-03-15T08:07:37;3.57;;;1.97;;
20065;SDS011;10193;48.884;9.182;2023-03-15T08:10:04;3.27;;;1.87;;
20065;SDS011;10193;48.884;9.182;2023-03-15T08:12:33;4.70;;;2.10;;
20065;SDS011;10193;48.884;9.182;2023-03-15T08:15:00;4.90;;;2.80;;
20065;SDS011;10193;48.884;9.182;2023-03-15T08:17:26;3.40;;;2.30;;
20065;SDS011;10193;48.884;9.182;2023-03-15T08:19:53;2.63;;;1.87;;
20065;SDS011;10193;48.884;9.182;2023-03-15T08:22:20;3.63;;;2.00;;
20065;SDS011;10193;48.884;9.182;2023-03-15T08:24:47;3.07;;;1.90;;
20065;SDS011;10193;48.884;9.182;2023-03-15T08:27:17;4.23;;;1.80;;
20065;SDS011;10193;48.884;9.182;2023-03-15T08:29:45;4.10;;;1.98;;
20065;SDS011;10193;48.884;9.182;2023-03-15T08:32:12;3.83;;;1.80;;
20065;SDS011;10193;48.884;9.182;2023-03-15T08:34:38;3.47;;;1.87;;
20065;SDS011;10193;48.884;9.182;2023-03-15T08:37:05;3.17;;;1.80;;
20065;SDS011;10193;48.884;9.182;2023-03-15T08:39:32;3.90;;;1.50;;
20065;SDS011;10193;48.884;9.182;2023-03-15T08:42:00;3.97;;;1.80;;
20065;SDS011;10193;48.884;9.182;2023-03-15T08:44:27;4.20;;;1.67;;
20065;SDS011;10193;48.884;9.182;2023-03-15T08:46:55;6.93;;;2.08;;
20065;SDS011;10193;48.884;9.182;2023-03-15T08:49:21;3.72;;;1.55;;
20065;SDS011;10193;48.884;9.182;2023-03-15T08:51:48;4.97;;;1.83;;
20065;SDS011;10193;48.884;9.182;2023-03-15T08:54:15;3.63;;;1.65;;
20065;SDS011;10193;48.884;9.182;2023-03-15T08:56:41;3.53;;;1.70;;
20065;SDS011;10193;48.884;9.182;2023-03-15T08:59:08;3.28;;;1.65;;
20065;SDS011;10193;48.884;9.182;2023-03-15T09:01:35;2.83;;;1.70;;
20065;SDS011;10193;48.884;9.182;2023-03-15T09:04:05;2.15;;;1.90;;
20065;SDS011;10193;48.884;9.182;2023-03-15T09:06:32;2.10;;;1.70;;
20065;SDS011;10193;48.884;9.182;2023-03-15T09:08:58;2.75;;;1.48;;
20065;SDS011;10193;48.884;9.182;2023-03-15T09:11:25;2.50;;;1.55;;
20065;SDS011;10193;48.884;9.182;2023-03-15T09:13:52;2.30;;;1.70;;
20065;SDS011;10193;48.884;9.182;2023-03-15T09:16:18;3.47;;;2.22;;
20065;SDS011;10193;48.884;9.182;2023-03-15T09:18:45;2.92;;;2.00;;
20065;SDS011;10193;48.884;9.182;2023-03-15T09:21:13;2.17;;;1.50;;
20065;SDS011;10193;48.884;9.182;2023-03-15T09:23:40;2.78;;;1.33;;
20065;SDS011;10193;48.884;9.182;2023-03-15T09:26:06;1.80;;;1.30;;
20065;SDS011;10193;48.884;9.182;2023-03-15T09:28:33;1.80;;;1.10;;
20065;SDS011;10193;48.884;9.182;2023-03-15T09:31:02;2.92;;;1.08;;
20065;SDS011;10193;48.884;9.182;2023-03-15T09:33:30;4.50;;;1.48;;
20065;SDS011;10193;48.884;9.182;2023-03-15T09:35:57;2.13;;;1.17;;
20065;SDS011;10193;48.884;9.182;2023-03-15T09:38:26;3.00;;;1.60;;
20065;SDS011;10193;48.884;9.182;2023-03-15T09:40:55;2.25;;;1.13;;
20065;SDS011;10193;48.884;9.182;2023-03-15T09:43:42;2.25;;;1.30;;
20065;SDS011;10193;48.884;9.182;2023-03-15T09:46:24;3.90;;;1.33;;
20065;SDS011;10193;48.884;9.182;2023-03-15T09:48:55;3.85;;;1.15;;
20065;SDS011;10193;48.884;9.182;2023-03-15T09:51:30;1.48;;;1.08;;
20065;SDS011;10193;48.884;9.182;2023-03-15T09:54:05;3.63;;;1.17;;
20065;SDS011;10193;48.884;9.182;2023-03-15T09:56:37;1.45;;;0.82;;
20065;SDS011;10193;48.884;9.182;2023-03-15T09:59:09;1.98;;;1.33;;
20065;SDS011;10193;48.884;9.182;2023-03-15T10:01:37;4.15;;;1.10;;
20065;SDS011;10193;48.884;9.182;2023-03-15T10:04:07;1.98;;;0.98;;
20065;SDS011;10193;48.884;9.182;2023-03-15T10:06:38;2.10;;;1.23;;
20065;SDS011;10193;48.884;9.182;2023-03-15T10:09:12;3.67;;;1.25;;
20065;SDS011;10193;48.884;9.182;2023-03-15T10:11:45;1.35;;;1.05;;
20065;SDS011;10193;48.884;9.182;2023-03-15T10:14:17;2.35;;;1.10;;
20065;SDS011;10193;48.884;9.182;2023-03-15T10:16:52;1.17;;;0.93;;
20065;SDS011;10193;48.884;9.182;2023-03-15T10:19:24;1.77;;;0.90;;
20065;SDS011;10193;48.884;9.182;2023-03-15T10:21:59;2.25;;;1.20;;
20065;SDS011;10193;48.884;9.182;2023-03-15T10:24:32;2.25;;;1.20;;
20065;SDS011;10193;48.884;9.182;2023-03-15T10:27:07;2.35;;;1.10;;
20065;SDS011;10193;48.884;9.182;2023-03-15T10:29:39;2.22;;;1.23;;
20065;SDS011;10193;48.884;9.182;2023-03-15T10:32:08;4.03;;;0.93;;
20065;SDS011;10193;48.884;9.182;2023-03-15T10:34:42;1.20;;;0.88;;
20065;SDS011;10193;48.884;9.182;2023-03-15T10:37:11;4.57;;;1.10;;
20065;SDS011;10193;48.884;9.182;2023-03-15T10:39:39;3.55;;;1.40;;
20065;SDS011;10193;48.884;9.182;2023-03-15T10:42:21;1.85;;;1.10;;
20065;SDS011;10193;48.884;9.182;2023-03-15T10:44:55;3.63;;;1.02;;
20065;SDS011;10193;48.884;9.182;2023-03-15T10:47:22;1.38;;;1.05;;
20065;SDS011;10193;48.884;9.182;2023-03-15T10:49:54;1.67;;;1.05;;
20065;SDS011;10193;48.884;9.182;2023-03-15T10:52:26;3.95;;;1.05;;
20065;SDS011;10193;48.884;9.182;2023-03-15T10:54:57;2.08;;;1.25;;
20065;SDS011;10193;48.884;9.182;2023-03-15T10:57:26;2.67;;;1.20;;
20065;SDS011;10193;48.884;9.182;2023-03-15T10:59:58;1.45;;;0.95;;
20065;SDS011;10193;48.884;9.182;2023-03-15T11:02:30;1.45;;;0.93;;
20065;SDS011;10193;48.884;9.182;2023-03-15T11:04:58;3.28;;;1.05;;
20065;SDS011;10193;48.884;9.182;2023-03-15T11:07:27;1.30;;;0.73;;
20065;SDS011;10193;48.884;9.182;2023-03-15T11:09:59;2.20;;;1.10;;
20065;SDS011;10193;48.884;9.182;2023-03-15T11:12:27;1.73;;;0.73;;
20065;SDS011;10193;48.884;9.182;2023-03-15T11:14:56;3.13;;;1.05;;
20065;SDS011;10193;48.884;9.182;2023-03-15T11:17:25;1.58;;;0.75;;
20065;SDS011;10193;48.884;9.182;2023-03-15T11:19:54;1.17;;;0.95;;
20065;SDS011;10193;48.884;9.182;2023-03-15T11:22:23;1.77;;;0.80;;
20065;SDS011;10193;48.884;9.182;2023-03-15T11:24:51;1.92;;;1.02;;
20065;SDS011;10193;48.884;9.182;2023-03-15T11:27:21;2.85;;;1.10;;
20065;SDS011;10193;48.884;9.182;2023-03-15T11:29:49;2.35;;;1.00;;
20065;SDS011;10193;48.884;9.182;2023-03-15T11:32:20;0.65;;;0.65;;
20065;SDS011;10193;48.884;9.182;2023-03-15T11:34:51;0.90;;;0.85;;
20065;SDS011;10193;48.884;9.182;2023-03-15T11:37:22;0.70;;;0.70;;
20065;SDS011;10193;48.884;9.182;2023-03-15T11:39:53;1.65;;;0.80;;
20065;SDS011;10193;48.884;9.182;2023-03-15T11:42:24;0.90;;;0.85;;
20065;SDS011;10193;48.884;9.182;2023-03-15T11:44:57;1.52;;;0.90;;
20065;SDS011;10193;48.884;9.182;2023-03-15T11:47:31;2.97;;;1.20;;
20065;SDS011;10193;48.884;9.182;2023-03-15T11:50:04;2.20;;;1.30;;
20065;SDS011;10193;48.884;9.182;2023-03-15T11:52:31;2.15;;;1.10;;
20065;SDS011;10193;48.884;9.182;2023-03-15T11:54:58;3.25;;;1.00;;
20065;SDS011;10193;48.884;9.182;2023-03-15T11:57:39;3.28;;;1.15;;
20065;SDS011;10193;48.884;9.182;2023-03-15T12:00:18;2.92;;;1.10;;
20065;SDS011;10193;48.884;9.182;2023-03-15T12:03:24;2.97;;;1.27;;
20065;SDS011;10193;48.884;9.182;2023-03-15T12:05:58;1.67;;;0.95;;
20065;SDS011;10193;48.884;9.182;2023-03-15T12:08:41;1.35;;;1.25;;
20065;SDS011;10193;48.884;9.182;2023-03-15T12:11:10;1.85;;;1.30;;
20065;SDS011;10193;48.884;9.182;2023-03-15T12:13:38;2.17;;;1.25;;
20065;SDS011;10193;48.884;9.182;2023-03-15T12:16:19;2.45;;;1.33;;
20065;SDS011;10193;48.884;9.182;2023-03-15T12:18:47;3.38;;;1.38;;
20065;SDS011;10193;48.884;9.182;2023-03-15T12:21:19;2.08;;;1.25;;
20065;SDS011;10193;48.884;9.182;2023-03-15T12:23:48;1.75;;;1.30;;
20065;SDS011;10193;48.884;9.182;2023-03-15T12:26:24;1.70;;;1.30;;
20065;SDS011;10193;48.884;9.182;2023-03-15T12:29:06;1.77;;;1.40;;
20065;SDS011;10193;48.884;9.182;2023-03-15T12:31:47;1.65;;;1.30;;
20065;SDS011;10193;48.884;9.182;2023-03-15T12:34:23;2.75;;;1.70;;
20065;SDS011;10193;48.884;9.182;2023-03-15T12:37:04;1.85;;;1.50;;
20065;SDS011;10193;48.884;9.182;2023-03-15T12:39:35;3.95;;;2.00;;
20065;SDS011;10193;48.884;9.182;2023-03-15T12:42:10;2.30;;;1.63;;
20065;SDS011;10193;48.884;9.182;2023-03-15T12:44:53;2.88;;;1.60;;
20065;SDS011;10193;48.884;9.182;2023-03-15T12:47:42;1.13;;;1.02;;
20065;SDS011;10193;48.884;9.182;2023-03-15T12:53:02;2.58;;;1.50;;
20065;SDS011;10193;48.884;9.182;2023-03-15T12:55:38;1.85;;;1.45;;
20065;SDS011;10193;48.884;9.182;2023-03-15T12:58:05;3.35;;;1.50;;
20065;SDS011;10193;48.884;9.182;2023-03-15T13:00:38;1.42;;;1.33;;
20065;SDS011;10193;48.884;9.182;2023-03-15T13:03:07;2.03;;;1.42;;
20065;SDS011;10193;48.884;9.182;2023-03-15T13:05:43;2.00;;;1.50;;
20065;SDS011;10193;48.884;9.182;2023-03-15T13:08:21;1.42;;;1.27;;
20065;SDS011;10193;48.884;9.182;2023-03-15T13:10:55;2.70;;;1.35;;
20065;SDS011;10193;48.884;9.182;2023-03-15T13:13:34;1.60;;;1.50;;
20065;SDS011;10193;48.884;9.182;2023-03-15T13:16:23;1.60;;;1.50;;
20065;SDS011;10193;48.884;9.182;2023-03-15T13:18:58;2.22;;;1.77;;
20065;SDS011;10193;48.884;9.182;2023-03-15T13:21:32;2.28;;;1.67;;
20065;SDS011;10193;48.884;9.182;2023-03-15T13:24:02;1.58;;;1.48;;
20065;SDS011;10193;48.884;9.182;2023-03-15T13:26:48;1.45;;;1.35;;
20065;SDS011;10193;48.884;9.182;2023-03-15T13:29:21;1.77;;;1.48;;
20065;SDS011;10193;48.884;9.182;2023-03-15T13:31:59;3.63;;;1.60;;
20065;SDS011;10193;48.884;9.182;2023-03-15T13:34:27;1.50;;;1.40;;
20065;SDS011;10193;48.884;9.182;2023-03-15T13:36:58;1.85;;;1.30;;
20065;SDS011;10193;48.884;9.182;2023-03-15T13:39:26;1.58;;;1.48;;
20065;SDS011;10193;48.884;9.182;2023-03-15T13:41:58;2.33;;;1.60;;
20065;SDS011;10193;48.884;9.182;2023-03-15T13:44:27;2.00;;;1.40;;
20065;SDS011;10193;48.884;9.182;2023-03-15T13:46:55;1.75;;;1.33;;
20065;SDS011;10193;48.884;9.182;2023-03-15T13:49:23;1.58;;;1.40;;
20065;SDS011;10193;48.884;9.182;2023-03-15T13:51:55;4.28;;;1.77;;
20065;SDS011;10193;48.884;9.182;2023-03-15T13:54:23;3.00;;;1.42;;
20065;SDS011;10193;48.884;9.182;2023-03-15T13:56:55;1.60;;;1.50;;
20065;SDS011;10193;48.884;9.182;2023-03-15T13:59:26;1.50;;;1.40;;
20065;SDS011;10193;48.884;9.182;2023-03-15T14:01:57;1.65;;;1.55;;
20065;SDS011;10193;48.884;9.182;2023-03-15T14:04:27;3.20;;;1.50;;
20065;SDS011;10193;48.884;9.182;2023-03-15T14:07:15;1.85;;;1.40;;
20065;SDS011;10193;48.884;9.182;2023-03-15T14:12:34;1.92;;;1.38;;
20065;SDS011;10193;48.884;9.182;2023-03-15T14:15:01;1.48;;;1.38;;
20065;SDS011;10193;48.884;9.182;2023-03-15T14:17:28;1.98;;;1.30;;
20065;SDS011;10193;48.884;9.182;2023-03-15T14:20:03;1.25;;;1.20;;
20065;SDS011;10193;48.884;9.182;2023-03-15T14:22:32;2.05;;;1.02;;
20065;SDS011;10193;48.884;9.182;2023-03-15T14:24:59;1.00;;;1.00;;
20065;SDS011;10193;48.884;9.182;2023-03-15T14:27:27;0.80;;;0.80;;
20065;SDS011;10193;48.884;9.182;2023-03-15T14:29:56;1.02;;;1.00;;
20065;SDS011;10193;48.884;9.182;2023-03-15T14:32:25;2.63;;;1.40;;
20065;SDS011;10193;48.884;9.182;2023-03-15T14:34:59;1.10;;;1.00;;
20065;SDS011;10193;48.884;9.182;2023-03-15T14:37:29;1.48;;;1.20;;
20065;SDS011;10193;48.884;9.182;2023-03-15T14:42:46;0.93;;;0.90;;
20065;SDS011;10193;48.884;9.182;2023-03-15T14:45:13;0.97;;;0.80;;
20065;SDS011;10193;48.884;9.182;2023-03-15T14:47:42;0.75;;;0.70;;
20065;SDS011;10193;48.884;9.182;2023-03-15T14:52:42;1.20;;;1.10;;
20065;SDS011;10193;48.884;9.182;2023-03-15T14:55:11;1.20;;;1.10;;
20065;SDS011;10193;48.884;9.182;2023-03-15T14:57:39;0.77;;;0.77;;
20065;SDS011;10193;48.884;9.182;2023-03-15T15:00:06;1.43;;;1.33;;
20065;SDS011;10193;48.884;9.182;2023-03-15T15:02:37;1.47;;;1.00;;
20065;SDS011;10193;48.884;9.182;2023-03-15T15:05:08;1.43;;;0.93;;
20065;SDS011;10193;48.884;9.182;2023-03-15T15:07:45;1.37;;;1.27;;
20065;SDS011;10193;48.884;9.182;2023-03-15T15:10:12;1.00;;;0.90;;
20065;SDS011;10193;48.884;9.182;2023-03-15T15:12:38;0.90;;;0.90;;
20065;SDS011;10193;48.884;9.182;2023-03-15T15:15:08;1.00;;;0.90;;